createdAt,value
2022-09-14T00:00:36.607Z,98433.50
2022-09-14T00:03:03.300Z,98433.50
2022-09-14T00:05:29.875Z,98448.00
2022-09-14T00:07:56.487Z,98449.94
2022-09-14T00:10:23.351Z,98466.41
2022-09-14T00:12:49.849Z,98466.78
2022-09-14T00:15:16.461Z,98457.31
2022-09-14T00:17:43.088Z,98443.53
2022-09-14T00:20:10.085Z,98440.28
2022-09-14T00:22:36.679Z,98431.94
2022-09-14T00:25:03.773Z,98447.13
2022-09-14T00:27:30.435Z,98438.09
2022-09-14T00:29:56.956Z,98440.44
2022-09-14T00:32:23.487Z,98439.22
2022-09-14T00:34:50.116Z,98440.00
2022-09-14T00:37:16.695Z,98443.47
2022-09-14T00:39:43.385Z,98446.94
2022-09-14T00:42:15.803Z,98455.19
2022-09-14T00:44:42.274Z,98452.44
2022-09-14T00:47:08.954Z,98446.91
2022-09-14T00:49:39.864Z,98447.63
2022-09-14T00:52:21.893Z,98434.69
2022-09-14T00:54:56.621Z,98441.75
2022-09-14T00:57:24.663Z,98441.34
2022-09-14T00:59:53.098Z,98444.44
2022-09-14T01:02:22.266Z,98443.66
2022-09-14T01:04:50.235Z,98438.19
2022-09-14T01:07:43.250Z,98430.28
2022-09-14T01:10:10.148Z,98440.09
2022-09-14T01:13:06.621Z,98437.31
2022-09-14T01:15:45.215Z,98424.78
2022-09-14T01:18:17.603Z,98425.53
2022-09-14T01:20:59.363Z,98429.44
2022-09-14T01:23:49.106Z,98424.69
2022-09-14T01:26:39.879Z,98429.72
2022-09-14T01:29:12.391Z,98426.19
2022-09-14T01:31:50.300Z,98426.56
2022-09-14T01:34:34.159Z,98423.03
2022-09-14T01:37:22.433Z,98423.78
2022-09-14T01:39:57.722Z,98419.13
2022-09-14T01:42:27.435Z,98412.84
2022-09-14T01:45:01.711Z,98414.38
2022-09-14T01:47:42.888Z,98414.31
2022-09-14T01:50:24.813Z,98409.59
2022-09-14T01:53:14.063Z,98407.97
2022-09-14T01:55:43.921Z,98400.97
2022-09-14T01:58:31.403Z,98407.97
2022-09-14T02:01:02.401Z,98407.97
2022-09-14T02:03:35.740Z,98426.38
2022-09-14T02:06:09.476Z,98434.53
2022-09-14T02:08:36.302Z,98434.53
2022-09-14T02:11:02.963Z,98439.25
2022-09-14T02:13:29.788Z,98446.25
2022-09-14T02:15:56.506Z,98439.97
2022-09-14T02:18:23.131Z,98439.97
2022-09-14T02:21:07.163Z,98435.25
2022-09-14T02:23:35.743Z,98430.19
2022-09-14T02:26:02.272Z,98430.19
2022-09-14T02:28:28.845Z,98430.59
2022-09-14T02:31:25.708Z,98440.03
2022-09-14T02:34:13.914Z,98429.06
2022-09-14T02:36:51.710Z,98436.41
2022-09-14T02:39:35.411Z,98430.53
2022-09-14T02:42:20.146Z,98430.09
2022-09-14T02:44:59.043Z,98429.66
2022-09-14T02:47:40.695Z,98428.47
2022-09-14T02:50:35.105Z,98428.75
2022-09-14T02:53:14.331Z,98427.97
2022-09-14T02:55:46.919Z,98413.13
2022-09-14T02:58:14.970Z,98422.53
2022-09-14T03:00:50.753Z,98426.44
2022-09-14T03:03:19.947Z,98412.34
2022-09-14T03:05:47.596Z,98416.25
2022-09-14T03:08:14.799Z,98423.25
2022-09-14T03:10:44.817Z,98417.38
2022-09-14T03:13:12.413Z,98422.84
2022-09-14T03:15:39.208Z,98418.94
2022-09-14T03:18:10.005Z,98412.31
2022-09-14T03:20:38.924Z,98397.50
2022-09-14T03:23:07.217Z,98389.28
2022-09-14T03:25:40.472Z,98394.66
2022-09-14T03:28:07.859Z,98394.63
2022-09-14T03:30:35.420Z,98391.03
2022-09-14T03:33:02.172Z,98371.84
2022-09-14T03:35:31.429Z,98368.59
2022-09-14T03:37:59.480Z,98368.88
2022-09-14T03:40:27.619Z,98371.53
2022-09-14T03:42:54.462Z,98382.84
2022-09-14T03:45:21.848Z,98380.13
2022-09-14T03:47:49.031Z,98359.41
2022-09-14T03:50:17.201Z,98348.44
2022-09-14T03:52:43.942Z,98355.06
2022-09-14T03:55:10.799Z,98355.06
2022-09-14T03:57:37.597Z,98354.69
2022-09-14T04:00:06.699Z,98369.53
2022-09-14T04:02:33.330Z,98365.59
2022-09-14T04:04:59.914Z,98362.50
2022-09-14T04:07:26.686Z,98363.25
2022-09-14T04:09:53.227Z,98354.22
2022-09-14T04:12:19.775Z,98360.03
2022-09-14T04:14:46.309Z,98356.88
2022-09-14T04:17:12.852Z,98356.06
2022-09-14T04:19:40.962Z,98363.09
2022-09-14T04:22:07.877Z,98369.31
2022-09-14T04:24:34.659Z,98367.25
2022-09-14T04:27:01.161Z,98366.78
2022-09-14T04:29:30.474Z,98372.94
2022-09-14T04:31:57.418Z,98370.56
2022-09-14T04:34:23.983Z,98367.00
2022-09-14T04:36:50.687Z,98374.03
2022-09-14T04:39:17.307Z,98371.31
2022-09-14T04:41:44.084Z,98364.25
2022-09-14T04:44:10.823Z,98367.34
2022-09-14T04:46:43.619Z,98361.09
2022-09-14T04:49:13.067Z,98364.25
2022-09-14T04:51:39.711Z,98369.31
2022-09-14T04:54:07.243Z,98370.88
2022-09-14T04:56:36.001Z,98367.41
2022-09-14T04:59:04.423Z,98369.03
2022-09-14T05:01:34.517Z,98363.09
2022-09-14T05:04:01.352Z,98364.00
2022-09-14T05:06:31.074Z,98360.88
2022-09-14T05:08:59.167Z,98370.47
2022-09-14T05:11:29.323Z,98376.97
2022-09-14T05:13:57.237Z,98384.16
2022-09-14T05:16:25.400Z,98375.66
2022-09-14T05:18:55.048Z,98377.72
2022-09-14T05:21:22.956Z,98377.38
2022-09-14T05:23:57.967Z,98381.41
2022-09-14T05:26:26.827Z,98383.84
2022-09-14T05:28:56.826Z,98390.53
2022-09-14T05:31:25.174Z,98383.94
2022-09-14T05:33:52.253Z,98377.69
2022-09-14T05:36:19.629Z,98376.19
2022-09-14T05:38:46.624Z,98386.03
2022-09-14T05:41:14.519Z,98385.25
2022-09-14T05:43:42.081Z,98383.31
2022-09-14T05:46:12.357Z,98375.47
2022-09-14T05:48:40.250Z,98370.00
2022-09-14T05:51:10.814Z,98374.69
2022-09-14T05:53:37.503Z,98375.09
2022-09-14T05:56:09.513Z,98378.59
2022-09-14T05:58:37.256Z,98366.84
2022-09-14T06:01:16.061Z,98365.28
2022-09-14T06:03:43.764Z,98353.88
2022-09-14T06:06:12.361Z,98354.28
2022-09-14T06:08:39.479Z,98357.03
2022-09-14T06:11:07.504Z,98362.16
2022-09-14T06:13:34.520Z,98352.34
2022-09-14T06:16:09.758Z,98359.81
2022-09-14T06:18:37.768Z,98360.59
2022-09-14T06:21:05.574Z,98358.66
2022-09-14T06:23:33.284Z,98349.63
2022-09-14T06:26:02.566Z,98370.44
2022-09-14T06:28:30.311Z,98366.50
2022-09-14T06:30:57.755Z,98365.31
2022-09-14T06:33:25.022Z,98360.59
2022-09-14T06:36:12.908Z,98343.34
2022-09-14T06:38:40.512Z,98348.09
2022-09-14T06:41:09.484Z,98350.06
2022-09-14T06:43:41.255Z,98357.53
2022-09-14T06:46:23.604Z,98360.69
2022-09-14T06:48:56.054Z,98363.84
2022-09-14T06:51:32.777Z,98362.25
2022-09-14T06:54:00.971Z,98356.38
2022-09-14T06:56:38.950Z,98354.78
2022-09-14T06:59:07.265Z,98338.28
2022-09-14T07:01:34.479Z,98340.22
2022-09-14T07:04:01.671Z,98340.19
2022-09-14T07:06:31.018Z,98335.47
2022-09-14T07:08:58.170Z,98336.66
2022-09-14T07:11:27.104Z,98349.63
2022-09-14T07:13:57.319Z,98356.31
2022-09-14T07:16:26.465Z,98348.09
2022-09-14T07:18:58.086Z,98351.66
2022-09-14T07:21:25.565Z,98346.59
2022-09-14T07:23:52.528Z,98339.56
2022-09-14T07:26:25.002Z,98338.00
2022-09-14T07:28:55.517Z,98349.00
2022-09-14T07:31:28.213Z,98340.69
2022-09-14T07:33:56.840Z,98344.28
2022-09-14T07:36:25.179Z,98343.88
2022-09-14T07:38:53.442Z,98357.63
2022-09-14T07:41:25.599Z,98352.91
2022-09-14T07:43:52.598Z,98341.13
2022-09-14T07:46:20.281Z,98339.16
2022-09-14T07:48:48.145Z,98333.66
2022-09-14T07:51:14.952Z,98319.84
2022-09-14T07:53:43.252Z,98320.66
2022-09-14T07:56:11.583Z,98317.88
2022-09-14T07:58:38.495Z,98312.69
2022-09-14T08:01:12.152Z,98298.44
2022-09-14T08:03:40.745Z,98303.91
2022-09-14T08:06:10.894Z,98316.53
2022-09-14T08:08:42.060Z,98328.31
2022-09-14T08:11:42.848Z,98321.25
2022-09-14T08:14:11.623Z,98325.19
2022-09-14T08:16:39.143Z,98331.88
2022-09-14T08:19:10.825Z,98344.84
2022-09-14T08:21:37.389Z,98361.00
2022-09-14T08:24:04.862Z,98370.81
2022-09-14T08:26:31.899Z,98384.59
2022-09-14T08:29:00.530Z,98388.16
2022-09-14T08:31:28.535Z,98391.69
2022-09-14T08:33:56.526Z,98385.41
2022-09-14T08:36:24.529Z,98388.91
2022-09-14T08:38:51.503Z,98384.97
2022-09-14T08:41:55.236Z,98388.16
2022-09-14T08:44:58.949Z,98375.53
2022-09-14T08:47:32.339Z,98388.09
2022-09-14T08:50:06.139Z,98398.72
2022-09-14T08:52:39.304Z,98410.09
2022-09-14T08:55:24.525Z,98409.25
2022-09-14T08:58:01.543Z,98401.34
2022-09-14T09:00:55.508Z,98391.91
2022-09-14T09:03:45.489Z,98397.09
2022-09-14T09:06:22.484Z,98393.63
2022-09-14T09:09:02.769Z,98391.69
2022-09-14T09:11:46.698Z,98383.84
2022-09-14T09:14:31.196Z,98385.81
2022-09-14T09:17:01.643Z,98373.22
2022-09-14T09:19:41.382Z,98361.84
2022-09-14T09:22:15.098Z,98357.47
2022-09-14T09:24:50.542Z,98355.91
2022-09-14T09:27:17.144Z,98347.63
2022-09-14T09:29:44.123Z,98352.72
2022-09-14T09:32:25.093Z,98342.91
2022-09-14T09:34:51.991Z,98340.91
2022-09-14T09:37:23.367Z,98337.38
2022-09-14T09:39:50.770Z,98345.59
2022-09-14T09:42:21.863Z,98338.50
2022-09-14T09:45:04.074Z,98332.25
2022-09-14T09:47:35.529Z,98334.19
2022-09-14T09:50:06.658Z,98332.19
2022-09-14T09:52:34.730Z,98320.72
2022-09-14T09:55:03.012Z,98320.28
2022-09-14T09:57:33.013Z,98313.97
2022-09-14T10:00:11.715Z,98303.31
2022-09-14T10:02:38.445Z,98304.06
2022-09-14T10:05:11.151Z,98306.00
2022-09-14T10:07:50.916Z,98296.00
2022-09-14T10:10:20.387Z,98297.81
2022-09-14T10:12:55.834Z,98299.19
2022-09-14T10:15:31.812Z,98294.41
2022-09-14T10:18:08.346Z,98294.47
2022-09-14T10:20:37.238Z,98296.13
2022-09-14T10:23:19.190Z,98306.91
2022-09-14T10:25:46.075Z,98295.66
2022-09-14T10:28:33.671Z,98294.59
2022-09-14T10:31:09.435Z,98290.69
2022-09-14T10:33:36.949Z,98289.91
2022-09-14T10:36:06.573Z,98290.72
2022-09-14T10:38:42.617Z,98289.50
2022-09-14T10:41:40.102Z,98277.59
2022-09-14T10:44:22.849Z,98272.75
2022-09-14T10:47:09.277Z,98268.00
2022-09-14T10:49:48.263Z,98268.75
2022-09-14T10:52:38.108Z,98276.16
2022-09-14T10:55:07.315Z,98277.34
2022-09-14T10:57:50.941Z,98268.75
2022-09-14T11:00:20.240Z,98263.28
2022-09-14T11:02:46.765Z,98258.53
2022-09-14T11:05:30.727Z,98249.66
2022-09-14T11:08:11.623Z,98235.31
2022-09-14T11:11:01.187Z,98219.38
2022-09-14T11:13:58.162Z,98223.16
2022-09-14T11:16:44.348Z,98219.84
2022-09-14T11:19:19.392Z,98220.47
2022-09-14T11:21:56.782Z,98228.22
2022-09-14T11:24:26.744Z,98231.59
2022-09-14T11:27:08.821Z,98232.44
2022-09-14T11:29:43.123Z,98237.50
2022-09-14T11:32:22.051Z,98231.25
2022-09-14T11:34:58.222Z,98234.38
2022-09-14T11:37:58.375Z,98248.66
2022-09-14T11:40:31.967Z,98240.72
2022-09-14T11:43:06.030Z,98234.66
2022-09-14T11:45:40.212Z,98236.59
2022-09-14T11:48:42.714Z,98246.06
2022-09-14T11:51:15.478Z,98255.59
2022-09-14T11:53:43.724Z,98251.06
2022-09-14T11:56:26.870Z,98263.81
2022-09-14T11:59:03.605Z,98260.25
2022-09-14T12:01:37.692Z,98260.19
2022-09-14T12:04:08.839Z,98268.78
2022-09-14T12:06:38.371Z,98258.88
2022-09-14T12:09:31.882Z,98246.38
2022-09-14T12:11:59.095Z,98244.00
2022-09-14T12:14:29.595Z,98240.53
2022-09-14T12:17:39.281Z,98254.34
2022-09-14T12:20:36.732Z,98260.78
2022-09-14T12:23:15.288Z,98252.84
2022-09-14T12:25:53.318Z,98254.28
2022-09-14T12:28:40.686Z,98260.72
2022-09-14T12:31:33.031Z,98257.91
2022-09-14T12:34:14.415Z,98254.00
2022-09-14T12:36:40.877Z,98242.63
2022-09-14T12:39:24.858Z,98248.88
2022-09-14T12:41:51.329Z,98236.59
2022-09-14T12:44:33.135Z,98226.78
2022-09-14T12:47:25.434Z,98226.88
2022-09-14T12:50:22.856Z,98217.38
2022-09-14T12:53:13.534Z,98211.19
2022-09-14T12:55:52.623Z,98217.69
2022-09-14T12:58:25.525Z,98221.78
2022-09-14T13:01:19.115Z,98210.06
2022-09-14T13:03:55.020Z,98205.28
2022-09-14T13:06:23.988Z,98196.50
2022-09-14T13:08:55.524Z,98198.47
2022-09-14T13:11:41.324Z,98198.81
2022-09-14T13:14:24.070Z,98187.41
2022-09-14T13:16:52.382Z,98187.81
2022-09-14T13:19:30.866Z,98194.94
2022-09-14T13:22:00.107Z,98199.22
2022-09-14T13:24:47.786Z,98196.41
2022-09-14T13:27:42.193Z,98201.75
2022-09-14T13:30:11.725Z,98199.22
2022-09-14T13:32:43.376Z,98194.03
2022-09-14T13:35:38.924Z,98188.13
2022-09-14T13:38:14.131Z,98182.97
2022-09-14T13:40:40.759Z,98185.72
2022-09-14T13:43:08.016Z,98182.59
2022-09-14T13:45:35.249Z,98167.56
2022-09-14T13:48:02.374Z,98166.66
2022-09-14T13:50:29.042Z,98161.53
2022-09-14T13:53:04.144Z,98163.59
2022-09-14T13:55:33.933Z,98157.72
2022-09-14T13:58:07.624Z,98155.81
2022-09-14T14:00:53.797Z,98156.59
2022-09-14T14:03:42.272Z,98169.34
2022-09-14T14:06:26.040Z,98167.56
2022-09-14T14:08:56.823Z,98168.84
2022-09-14T14:11:29.122Z,98161.75
2022-09-14T14:13:55.947Z,98159.47
2022-09-14T14:16:26.525Z,98160.31
2022-09-14T14:18:56.174Z,98160.31
2022-09-14T14:21:22.788Z,98152.25
2022-09-14T14:24:12.044Z,98147.47
2022-09-14T14:26:38.432Z,98153.63
2022-09-14T14:29:09.683Z,98133.69
2022-09-14T14:31:36.224Z,98135.78
2022-09-14T14:34:21.171Z,98131.88
2022-09-14T14:36:50.002Z,98127.38
2022-09-14T14:39:18.696Z,98128.28
2022-09-14T14:41:45.579Z,98115.66
2022-09-14T14:44:17.585Z,98136.78
2022-09-14T14:46:45.652Z,98139.28
2022-09-14T14:49:14.112Z,98138.56
2022-09-14T14:51:41.226Z,98127.50
2022-09-14T14:54:10.303Z,98124.59
2022-09-14T14:56:38.538Z,98119.91
2022-09-14T14:59:35.729Z,98121.28
2022-09-14T15:02:02.511Z,98119.94
2022-09-14T15:04:29.087Z,98103.94
2022-09-14T15:06:55.720Z,98107.81
2022-09-14T15:09:26.113Z,98104.34
2022-09-14T15:11:54.685Z,98098.19
2022-09-14T15:14:26.743Z,98099.31
2022-09-14T15:16:57.927Z,98097.56
2022-09-14T15:19:25.008Z,98101.63
2022-09-14T15:21:51.711Z,98105.25
2022-09-14T15:24:18.250Z,98105.69
2022-09-14T15:26:45.071Z,98113.66
2022-09-14T15:29:17.652Z,98110.16
2022-09-14T15:31:44.474Z,98110.53
2022-09-14T15:34:11.026Z,98121.00
2022-09-14T15:36:47.953Z,98118.00
2022-09-14T15:39:15.140Z,98118.44
2022-09-14T15:41:42.483Z,98124.75
2022-09-14T15:44:09.555Z,98117.00
2022-09-14T15:46:36.457Z,98122.31
2022-09-14T15:49:27.441Z,98123.91
2022-09-14T15:51:55.843Z,98125.47
2022-09-14T15:54:24.650Z,98132.03
2022-09-14T15:56:55.027Z,98135.00
2022-09-14T15:59:22.344Z,98139.03
2022-09-14T16:01:49.558Z,98137.41
2022-09-14T16:04:16.770Z,98138.84
2022-09-14T16:06:43.510Z,98143.38
2022-09-14T16:09:11.825Z,98143.59
2022-09-14T16:11:39.745Z,98160.69
2022-09-14T16:14:07.858Z,98160.38
2022-09-14T16:16:35.311Z,98169.22
2022-09-14T16:19:06.591Z,98166.06
2022-09-14T16:21:33.374Z,98161.75
2022-09-14T16:24:02.464Z,98157.31
2022-09-14T16:26:33.531Z,98150.78
2022-09-14T16:29:00.666Z,98150.06
2022-09-14T16:31:32.807Z,98147.56
2022-09-14T16:34:03.594Z,98142.09
2022-09-14T16:36:33.273Z,98151.91
2022-09-14T16:39:02.243Z,98152.41
2022-09-14T16:41:29.655Z,98156.53
2022-09-14T16:43:58.223Z,98152.72
2022-09-14T16:46:26.960Z,98145.66
2022-09-14T16:48:53.777Z,98138.69
2022-09-14T16:51:24.037Z,98133.38
2022-09-14T16:53:51.758Z,98134.03
2022-09-14T16:56:22.236Z,98141.75
2022-09-14T16:58:50.787Z,98149.50
2022-09-14T17:01:17.299Z,98151.31
2022-09-14T17:03:45.766Z,98155.00
2022-09-14T17:06:14.675Z,98154.13
2022-09-14T17:08:44.022Z,98156.72
2022-09-14T17:11:12.095Z,98156.19
2022-09-14T17:13:39.591Z,98152.75
2022-09-14T17:16:09.144Z,98151.69
2022-09-14T17:18:38.838Z,98161.75
2022-09-14T17:21:09.241Z,98155.66
2022-09-14T17:23:36.242Z,98150.69
2022-09-14T17:26:05.600Z,98154.75
2022-09-14T17:28:33.308Z,98176.09
2022-09-14T17:31:01.416Z,98164.78
2022-09-14T17:33:28.835Z,98164.06
2022-09-14T17:35:58.356Z,98174.41
2022-09-14T17:38:27.552Z,98210.41
2022-09-14T17:41:01.845Z,98201.00
2022-09-14T17:43:28.417Z,98218.69
2022-09-14T17:45:56.809Z,98220.09
2022-09-14T17:48:24.782Z,98222.94
2022-09-14T17:50:51.607Z,98223.38
2022-09-14T17:53:18.311Z,98214.84
2022-09-14T17:55:44.931Z,98213.31
2022-09-14T17:58:12.374Z,98214.50
2022-09-14T18:00:41.152Z,98212.94
2022-09-14T18:03:09.373Z,98216.91
2022-09-14T18:05:38.901Z,98209.84
2022-09-14T18:08:06.609Z,98202.00
2022-09-14T18:10:36.091Z,98188.28
2022-09-14T18:13:02.660Z,98208.34
2022-09-14T18:15:30.989Z,98227.19
2022-09-14T18:17:57.840Z,98261.00
2022-09-14T18:20:24.406Z,98296.22
2022-09-14T18:22:50.963Z,98220.88
2022-09-14T18:25:17.687Z,98261.59
2022-09-14T18:27:44.196Z,98280.50
2022-09-14T18:30:11.201Z,98286.22
2022-09-14T18:32:37.801Z,98293.94
2022-09-14T18:35:04.751Z,98286.06
2022-09-14T18:37:31.383Z,98288.81
2022-09-14T18:39:58.097Z,98290.34
2022-09-14T18:42:24.677Z,98281.34
2022-09-14T18:44:53.927Z,98288.81
2022-09-14T18:47:22.429Z,98288.03
2022-09-14T18:49:50.033Z,98290.88
2022-09-14T18:52:19.413Z,98274.16
2022-09-14T18:54:45.960Z,98280.81
2022-09-14T18:57:12.596Z,98268.28
2022-09-14T18:59:39.154Z,98273.72
2022-09-14T19:02:05.820Z,98269.81
2022-09-14T19:04:32.457Z,98275.63
2022-09-14T19:06:59.042Z,98269.75
2022-09-14T19:09:25.893Z,98272.47
2022-09-14T19:11:52.444Z,98269.41
2022-09-14T19:14:20.615Z,98264.31
2022-09-14T19:16:47.319Z,98265.50
2022-09-14T19:19:15.320Z,98261.25
2022-09-14T19:21:42.765Z,98263.63
2022-09-14T19:24:16.805Z,98277.66
2022-09-14T19:26:49.264Z,98272.59
2022-09-14T19:29:20.051Z,98275.75
2022-09-14T19:31:51.001Z,98280.06
2022-09-14T19:34:22.811Z,98276.16
2022-09-14T19:36:49.928Z,98276.56
2022-09-14T19:39:16.548Z,98278.94
2022-09-14T19:41:43.138Z,98287.97
2022-09-14T19:44:11.099Z,98287.16
2022-09-14T19:46:39.775Z,98298.50
2022-09-14T19:49:19.826Z,98296.56
2022-09-14T19:51:47.179Z,98302.06
2022-09-14T19:54:13.975Z,98305.16
2022-09-14T19:56:41.243Z,98305.22
2022-09-14T19:59:08.625Z,98306.00
2022-09-14T20:01:37.523Z,98309.94
2022-09-14T20:04:05.701Z,98312.28
2022-09-14T20:06:40.213Z,98325.56
2022-09-14T20:09:09.908Z,98313.00
2022-09-14T20:11:38.304Z,98313.78
2022-09-14T20:14:07.207Z,98305.22
2022-09-14T20:16:36.421Z,98313.84
2022-09-14T20:19:07.269Z,98313.88
2022-09-14T20:21:37.510Z,98318.63
2022-09-14T20:24:22.000Z,98314.72
2022-09-14T20:26:50.372Z,98317.16
2022-09-14T20:29:18.563Z,98308.59
2022-09-14T20:31:46.004Z,98307.81
2022-09-14T20:34:14.124Z,98301.94
2022-09-14T20:36:41.290Z,98303.91
2022-09-14T20:39:07.891Z,98303.13
2022-09-14T20:41:35.756Z,98292.94
2022-09-14T20:44:03.555Z,98292.91
2022-09-14T20:46:38.673Z,98291.31
2022-09-14T20:49:08.651Z,98295.56
2022-09-14T20:51:36.768Z,98304.13
2022-09-14T20:54:05.117Z,98306.81
2022-09-14T20:56:33.819Z,98307.63
2022-09-14T20:59:03.665Z,98307.63
2022-09-14T21:01:32.830Z,98299.41
2022-09-14T21:04:09.086Z,98307.63
2022-09-14T21:06:38.278Z,98304.88
2022-09-14T21:09:06.535Z,98305.28
2022-09-14T21:11:33.637Z,98290.44
2022-09-14T21:14:00.562Z,98293.56
2022-09-14T21:16:29.963Z,98298.28
2022-09-14T21:18:59.015Z,98301.44
2022-09-14T21:21:26.736Z,98303.00
2022-09-14T21:23:55.870Z,98313.97
2022-09-14T21:26:23.225Z,98317.16
2022-09-14T21:28:55.556Z,98324.16
2022-09-14T21:31:24.105Z,98327.66
2022-09-14T21:33:52.756Z,98332.81
2022-09-14T21:36:23.668Z,98332.03
2022-09-14T21:38:52.215Z,98333.59
2022-09-14T21:41:19.963Z,98329.69
2022-09-14T21:43:47.158Z,98333.19
2022-09-14T21:46:14.624Z,98335.56
2022-09-14T21:48:41.875Z,98339.06
2022-09-14T21:51:35.794Z,98337.50
2022-09-14T21:54:09.216Z,98348.88
2022-09-14T21:56:38.529Z,98357.47
2022-09-14T21:59:10.500Z,98352.00
2022-09-14T22:01:37.391Z,98361.28
2022-09-14T22:04:04.879Z,98362.88
2022-09-14T22:06:32.648Z,98362.88
2022-09-14T22:09:01.076Z,98364.03
2022-09-14T22:11:31.492Z,98366.78
2022-09-14T22:14:13.153Z,98364.03
2022-09-14T22:16:40.520Z,98364.78
2022-09-14T22:19:12.564Z,98373.41
2022-09-14T22:21:39.431Z,98374.91
2022-09-14T22:24:09.860Z,98378.13
2022-09-14T22:26:39.649Z,98380.47
2022-09-14T22:29:08.776Z,98375.78
2022-09-14T22:31:36.959Z,98376.56
2022-09-14T22:34:03.499Z,98371.84
2022-09-14T22:36:30.075Z,98367.13
2022-09-14T22:38:58.674Z,98372.59
2022-09-14T22:41:27.402Z,98374.16
2022-09-14T22:43:54.757Z,98371.03
2022-09-14T22:46:22.833Z,98381.16
2022-09-14T22:48:50.656Z,98376.50
2022-09-14T22:51:20.404Z,98380.41
2022-09-14T22:53:47.403Z,98374.09
2022-09-14T22:56:19.316Z,98374.09
2022-09-14T22:58:46.437Z,98370.06
2022-09-14T23:01:16.868Z,98370.81
2022-09-14T23:03:43.916Z,98360.69
2022-09-14T23:06:10.760Z,98371.56
2022-09-14T23:08:38.179Z,98372.31
2022-09-14T23:11:07.299Z,98362.94
2022-09-14T23:13:40.621Z,98375.81
2022-09-14T23:16:15.500Z,98372.66
2022-09-14T23:18:42.942Z,98371.44
2022-09-14T23:21:10.060Z,98372.25
2022-09-14T23:23:38.367Z,98367.94
2022-09-14T23:26:10.782Z,98366.78
2022-09-14T23:28:38.119Z,98370.69
2022-09-14T23:31:05.894Z,98365.22
2022-09-14T23:33:32.844Z,98373.00
2022-09-14T23:35:59.427Z,98372.22
2022-09-14T23:38:26.517Z,98371.44
2022-09-14T23:40:53.186Z,98369.06
2022-09-14T23:43:20.240Z,98367.84
2022-09-14T23:45:48.200Z,98363.53
2022-09-14T23:48:15.661Z,98368.19
2022-09-14T23:50:42.295Z,98365.81
2022-09-14T23:53:09.059Z,98366.19
2022-09-14T23:55:35.663Z,98372.81
2022-09-14T23:58:02.468Z,98365.78
